createdAt,value
2018-02-09T00:00:53.134Z,47.15
2018-02-09T00:03:19.367Z,46.97
2018-02-09T00:05:45.615Z,46.75
2018-02-09T00:08:11.832Z,46.35
2018-02-09T00:10:39.191Z,42.15
2018-02-09T00:13:06.166Z,47.40
2018-02-09T00:15:32.389Z,45.88
2018-02-09T00:17:59.389Z,47.60
2018-02-09T00:20:25.614Z,45.03
2018-02-09T00:22:51.896Z,46.22
2018-02-09T00:25:18.134Z,45.33
2018-02-09T00:27:44.390Z,51.92
2018-02-09T00:30:10.634Z,49.83
2018-02-09T00:32:36.854Z,45.90
2018-02-09T00:35:03.102Z,44.42
2018-02-09T00:37:29.340Z,48.28
2018-02-09T00:39:55.580Z,45.67
2018-02-09T00:42:21.825Z,51.13
2018-02-09T00:44:48.038Z,52.10
2018-02-09T00:47:14.651Z,44.50
2018-02-09T00:49:41.603Z,47.62
2018-02-09T00:52:08.623Z,49.53
2018-02-09T00:54:34.889Z,51.33
2018-02-09T00:57:01.111Z,44.95
2018-02-09T00:59:27.368Z,48.45
2018-02-09T01:01:53.631Z,47.70
2018-02-09T01:04:20.932Z,46.97
2018-02-09T01:06:47.170Z,47.08
2018-02-09T01:09:13.381Z,47.13
2018-02-09T01:11:40.393Z,46.35
2018-02-09T01:14:06.644Z,44.85
2018-02-09T01:16:32.896Z,42.03
2018-02-09T01:18:59.119Z,46.83
2018-02-09T01:21:25.370Z,43.72
2018-02-09T01:23:51.615Z,47.10
2018-02-09T01:26:17.846Z,48.72
2018-02-09T01:28:44.106Z,45.70
2018-02-09T01:31:10.318Z,49.10
2018-02-09T01:33:36.624Z,44.17
2018-02-09T01:36:02.860Z,45.85
2018-02-09T01:38:29.086Z,45.30
2018-02-09T01:40:56.058Z,47.38
2018-02-09T01:43:22.276Z,45.78
2018-02-09T01:45:49.630Z,45.78
2018-02-09T01:48:16.596Z,49.42
2018-02-09T01:50:43.558Z,49.40
2018-02-09T01:53:09.873Z,46.53
2018-02-09T01:55:36.057Z,46.03
2018-02-09T01:58:02.353Z,49.20
2018-02-09T02:00:28.593Z,48.35
2018-02-09T02:02:54.830Z,47.15
2018-02-09T02:05:21.084Z,49.97
2018-02-09T02:07:47.311Z,44.90
2018-02-09T02:10:13.548Z,47.97
2018-02-09T02:12:39.774Z,48.47
2018-02-09T02:15:06.007Z,48.40
2018-02-09T02:17:32.224Z,48.25
2018-02-09T02:19:58.435Z,47.67
2018-02-09T02:22:25.417Z,50.80
2018-02-09T02:24:51.636Z,49.92
2018-02-09T02:27:18.664Z,46.75
2018-02-09T02:29:44.898Z,45.55
2018-02-09T02:32:11.124Z,48.17
2018-02-09T02:34:37.348Z,46.30
2018-02-09T02:37:03.581Z,47.58
2018-02-09T02:39:29.802Z,44.42
2018-02-09T02:41:56.783Z,47.15
2018-02-09T02:44:23.028Z,51.40
2018-02-09T02:46:49.277Z,46.00
2018-02-09T02:49:15.539Z,48.72
2018-02-09T02:51:42.500Z,47.97
2018-02-09T02:54:08.728Z,48.70
2018-02-09T02:56:34.982Z,46.80
2018-02-09T02:59:01.198Z,45.75
2018-02-09T03:01:27.456Z,49.17
2018-02-09T03:03:53.695Z,48.40
2018-02-09T03:06:19.919Z,46.37
2018-02-09T03:08:46.138Z,48.90
2018-02-09T03:11:12.352Z,48.35
2018-02-09T03:13:39.608Z,46.42
2018-02-09T03:16:05.837Z,47.85
2018-02-09T03:18:32.055Z,49.15
2018-02-09T03:20:58.304Z,46.45
2018-02-09T03:23:24.499Z,47.20
2018-02-09T03:25:51.553Z,48.28
2018-02-09T03:28:17.836Z,48.70
2018-02-09T03:30:44.051Z,46.45
2018-02-09T03:33:10.314Z,44.25
2018-02-09T03:35:36.539Z,46.53
2018-02-09T03:38:02.775Z,48.90
2018-02-09T03:40:29.020Z,47.60
2018-02-09T03:42:55.258Z,50.63
2018-02-09T03:45:21.498Z,46.75
2018-02-09T03:47:47.702Z,48.13
2018-02-09T03:50:14.698Z,46.70
2018-02-09T03:52:40.911Z,51.00
2018-02-09T03:55:07.156Z,47.40
2018-02-09T03:57:34.112Z,48.10
2018-02-09T04:00:00.363Z,49.28
2018-02-09T04:02:26.621Z,49.85
2018-02-09T04:04:52.836Z,49.85
2018-02-09T04:07:19.819Z,47.40
2018-02-09T04:09:46.059Z,48.10
2018-02-09T04:12:12.304Z,49.65
2018-02-09T04:14:38.522Z,52.95
2018-02-09T04:17:04.783Z,49.63
2018-02-09T04:19:30.999Z,47.83
2018-02-09T04:21:57.970Z,49.70
2018-02-09T04:24:24.210Z,50.83
2018-02-09T04:26:50.437Z,49.83
2018-02-09T04:29:16.713Z,49.80
2018-02-09T04:31:42.958Z,52.15
2018-02-09T04:34:09.173Z,46.17
2018-02-09T04:36:35.783Z,48.60
2018-02-09T04:39:02.036Z,48.63
2018-02-09T04:41:28.262Z,52.90
2018-02-09T04:43:54.511Z,48.47
2018-02-09T04:46:21.473Z,50.00
2018-02-09T04:48:48.460Z,50.47
2018-02-09T04:51:14.697Z,49.25
2018-02-09T04:53:40.952Z,49.95
2018-02-09T04:56:07.180Z,51.00
2018-02-09T04:58:33.409Z,50.40
2018-02-09T05:00:59.642Z,50.20
2018-02-09T05:03:25.845Z,47.03
2018-02-09T05:05:52.102Z,49.38
2018-02-09T05:08:18.312Z,50.25
2018-02-09T05:10:44.522Z,50.40
2018-02-09T05:13:10.784Z,53.33
2018-02-09T05:15:36.995Z,52.88
2018-02-09T05:18:03.260Z,49.67
2018-02-09T05:20:29.481Z,53.10
2018-02-09T05:22:55.749Z,50.75
2018-02-09T05:25:21.961Z,48.80
2018-02-09T05:27:48.189Z,50.20
2018-02-09T05:30:14.500Z,43.35
2018-02-09T05:32:40.723Z,58.67
2018-02-09T05:35:06.950Z,54.20
2018-02-09T05:37:33.172Z,47.60
2018-02-09T05:39:59.452Z,48.42
2018-02-09T05:42:25.663Z,46.17
2018-02-09T05:44:51.908Z,45.40
2018-02-09T05:47:18.153Z,40.30
2018-02-09T05:49:44.400Z,42.00
2018-02-09T05:52:10.643Z,43.13
2018-02-09T05:54:36.877Z,43.50
2018-02-09T05:57:03.172Z,50.75
2018-02-09T05:59:30.174Z,49.17
2018-02-09T06:01:56.403Z,46.08
2018-02-09T06:04:22.657Z,48.33
2018-02-09T06:06:48.882Z,46.35
2018-02-09T06:09:15.131Z,48.28
2018-02-09T06:11:41.374Z,46.85
2018-02-09T06:14:07.596Z,48.87
2018-02-09T06:16:33.848Z,48.87
2018-02-09T06:19:00.086Z,48.85
2018-02-09T06:21:26.345Z,47.35
2018-02-09T06:23:52.589Z,50.88
2018-02-09T06:26:18.869Z,50.38
2018-02-09T06:28:45.888Z,48.87
2018-02-09T06:31:12.114Z,48.30
2018-02-09T06:33:38.705Z,51.53
2018-02-09T06:36:04.946Z,48.63
2018-02-09T06:38:31.948Z,47.17
2018-02-09T06:40:58.200Z,45.35
2018-02-09T06:43:24.440Z,53.20
2018-02-09T06:45:50.693Z,48.63
2018-02-09T06:48:16.927Z,48.50
2018-02-09T06:50:43.432Z,49.47
2018-02-09T06:53:09.671Z,49.78
2018-02-09T06:55:36.640Z,48.58
2018-02-09T06:58:02.893Z,51.47
2018-02-09T07:00:29.879Z,45.08
2018-02-09T07:02:56.457Z,49.15
2018-02-09T07:05:22.674Z,47.83
2018-02-09T07:07:48.916Z,50.65
2018-02-09T07:10:15.170Z,48.90
2018-02-09T07:12:41.421Z,52.15
2018-02-09T07:15:07.957Z,49.63
2018-02-09T07:17:34.211Z,48.72
2018-02-09T07:20:00.443Z,47.40
2018-02-09T07:22:26.704Z,48.78
2018-02-09T07:24:52.929Z,52.75
2018-02-09T07:27:19.168Z,53.13
2018-02-09T07:29:45.418Z,47.42
2018-02-09T07:32:11.653Z,52.97
2018-02-09T07:34:37.882Z,51.75
2018-02-09T07:37:04.113Z,51.40
2018-02-09T07:39:30.362Z,49.17
2018-02-09T07:41:56.643Z,46.42
2018-02-09T07:44:22.996Z,51.17
2018-02-09T07:46:49.221Z,46.90
2018-02-09T07:49:15.462Z,51.10
2018-02-09T07:51:42.501Z,51.28
2018-02-09T07:54:09.491Z,49.80
2018-02-09T07:56:35.750Z,47.70
2018-02-09T07:59:02.029Z,50.05
2018-02-09T08:01:28.596Z,47.55
2018-02-09T08:03:55.569Z,46.50
2018-02-09T08:06:21.851Z,48.63
2018-02-09T08:08:48.127Z,46.53
2018-02-09T08:11:14.376Z,47.83
2018-02-09T08:13:40.616Z,46.45
2018-02-09T08:16:06.823Z,45.88
2018-02-09T08:18:33.072Z,47.83
2018-02-09T08:20:59.323Z,52.50
2018-02-09T08:23:25.566Z,49.40
2018-02-09T08:25:51.853Z,50.20
2018-02-09T08:28:18.155Z,50.50
2018-02-09T08:30:44.407Z,50.38
2018-02-09T08:33:11.366Z,51.72
2018-02-09T08:35:38.640Z,48.17
2018-02-09T08:38:05.600Z,51.70
2018-02-09T08:40:31.830Z,50.63
2018-02-09T08:42:58.843Z,52.50
2018-02-09T08:45:25.062Z,53.72
2018-02-09T08:47:51.296Z,49.05
2018-02-09T08:50:17.523Z,50.60
2018-02-09T08:52:43.765Z,49.90
2018-02-09T08:55:10.029Z,48.53
2018-02-09T08:57:36.981Z,48.53
2018-02-09T09:00:03.537Z,45.12
2018-02-09T09:02:29.787Z,45.28
2018-02-09T09:04:56.070Z,47.33
2018-02-09T09:07:22.317Z,47.33
2018-02-09T09:09:49.299Z,44.97
2018-02-09T09:12:15.550Z,53.72
2018-02-09T09:14:41.766Z,51.35
2018-02-09T09:17:15.016Z,49.65
2018-02-09T09:19:41.238Z,47.22
2018-02-09T09:22:07.488Z,45.17
2018-02-09T09:24:33.749Z,46.92
2018-02-09T09:26:59.988Z,60.55
2018-02-09T09:29:26.266Z,45.90
2018-02-09T09:31:53.253Z,47.30
2018-02-09T09:34:19.494Z,47.30
2018-02-09T09:36:45.744Z,43.65
2018-02-09T09:39:12.003Z,46.35
2018-02-09T09:41:38.975Z,43.95
2018-02-09T09:44:05.244Z,41.30
2018-02-09T09:46:32.228Z,42.05
2018-02-09T09:48:58.460Z,43.90
2018-02-09T09:51:24.711Z,45.55
2018-02-09T09:53:50.950Z,43.67
2018-02-09T09:56:17.182Z,42.45
2018-02-09T09:58:43.430Z,46.42
2018-02-09T10:01:15.729Z,47.13
2018-02-09T10:03:41.975Z,46.17
2018-02-09T10:06:08.237Z,43.50
2018-02-09T10:08:34.498Z,37.72
2018-02-09T10:11:01.498Z,35.63
2018-02-09T10:13:27.811Z,37.92
2018-02-09T10:15:54.799Z,39.38
2018-02-09T10:18:21.054Z,37.35
2018-02-09T10:20:47.311Z,38.13
2018-02-09T10:23:13.561Z,36.65
2018-02-09T10:25:39.851Z,34.65
2018-02-09T10:28:06.116Z,36.60
2018-02-09T10:30:32.397Z,36.13
2018-02-09T10:32:58.647Z,37.83
2018-02-09T10:35:24.894Z,38.80
2018-02-09T10:37:51.897Z,38.67
2018-02-09T10:40:18.144Z,42.65
2018-02-09T10:42:44.394Z,40.85
2018-02-09T10:45:10.608Z,39.88
2018-02-09T10:47:36.878Z,40.05
2018-02-09T10:50:03.084Z,34.30
2018-02-09T10:52:29.338Z,38.13
2018-02-09T10:54:56.354Z,38.30
2018-02-09T10:57:23.322Z,39.63
2018-02-09T10:59:49.577Z,39.95
2018-02-09T11:02:15.819Z,39.40
2018-02-09T11:04:42.080Z,37.08
2018-02-09T11:07:08.306Z,39.50
2018-02-09T11:09:34.640Z,40.90
2018-02-09T11:12:00.884Z,39.03
2018-02-09T11:14:27.154Z,37.80
2018-02-09T11:16:54.144Z,38.95
2018-02-09T11:19:27.334Z,39.88
2018-02-09T11:21:53.565Z,38.88
2018-02-09T11:24:19.834Z,40.85
2018-02-09T11:26:46.861Z,39.17
2018-02-09T11:29:13.106Z,37.63
2018-02-09T11:31:39.366Z,38.90
2018-02-09T11:34:05.627Z,39.83
2018-02-09T11:36:31.887Z,37.15
2018-02-09T11:38:58.112Z,35.17
2018-02-09T11:41:25.065Z,35.28
2018-02-09T11:43:52.069Z,39.17
2018-02-09T11:46:18.361Z,37.78
2018-02-09T11:48:45.364Z,37.97
2018-02-09T11:51:11.578Z,37.00
2018-02-09T11:53:37.809Z,38.60
2018-02-09T11:56:04.849Z,37.30
2018-02-09T11:58:31.093Z,36.45
2018-02-09T12:00:58.083Z,38.22
2018-02-09T12:03:24.319Z,36.75
2018-02-09T12:05:50.555Z,34.00
2018-02-09T12:08:16.800Z,38.85
2018-02-09T12:10:43.029Z,38.20
2018-02-09T12:13:10.028Z,35.33
2018-02-09T12:15:36.283Z,35.53
2018-02-09T12:18:02.510Z,36.13
2018-02-09T12:20:28.725Z,36.15
2018-02-09T12:22:54.955Z,31.73
2018-02-09T12:25:21.194Z,34.38
2018-02-09T12:27:48.167Z,35.95
2018-02-09T12:30:15.177Z,34.88
2018-02-09T12:32:41.431Z,34.72
2018-02-09T12:35:08.694Z,33.75
2018-02-09T12:37:34.931Z,31.52
2018-02-09T12:40:01.173Z,33.90
2018-02-09T12:42:27.425Z,32.88
2018-02-09T12:44:54.411Z,74.97
2018-02-09T12:47:21.020Z,31.48
2018-02-09T12:49:47.270Z,32.70
2018-02-09T12:52:14.269Z,31.45
2018-02-09T12:54:40.540Z,31.40
2018-02-09T12:57:06.816Z,29.20
2018-02-09T12:59:33.813Z,32.17
2018-02-09T13:02:00.046Z,29.85
2018-02-09T13:04:26.301Z,29.70
2018-02-09T13:06:52.550Z,31.15
2018-02-09T13:09:19.545Z,30.90
2018-02-09T13:11:46.498Z,32.13
2018-02-09T13:14:25.779Z,32.80
2018-02-09T13:16:52.040Z,32.88
2018-02-09T13:19:18.304Z,31.05
2018-02-09T13:21:44.601Z,31.87
2018-02-09T13:24:18.081Z,31.60
2018-02-09T13:26:44.344Z,30.83
2018-02-09T13:29:10.615Z,33.20
2018-02-09T13:31:36.877Z,31.27
2018-02-09T13:34:03.132Z,32.17
2018-02-09T13:36:39.595Z,34.03
2018-02-09T13:39:05.861Z,31.80
2018-02-09T13:41:32.110Z,32.20
2018-02-09T13:43:58.399Z,32.08
2018-02-09T13:46:24.657Z,31.80
2018-02-09T13:48:50.908Z,35.72
2018-02-09T13:51:17.117Z,31.80
2018-02-09T13:53:43.390Z,33.38
2018-02-09T13:56:09.620Z,32.63
2018-02-09T13:58:35.843Z,34.83
2018-02-09T14:01:02.128Z,37.58
2018-02-09T14:03:28.354Z,34.38
2018-02-09T14:05:55.394Z,34.05
2018-02-09T14:08:21.642Z,33.35
2018-02-09T14:10:47.886Z,31.52
2018-02-09T14:13:14.168Z,33.92
2018-02-09T14:15:41.144Z,34.42
2018-02-09T14:18:07.398Z,32.05
2018-02-09T14:20:33.633Z,32.30
2018-02-09T14:22:59.936Z,37.13
2018-02-09T14:25:26.134Z,34.42
2018-02-09T14:27:52.345Z,33.15
2018-02-09T14:30:18.602Z,34.55
2018-02-09T14:32:44.837Z,32.53
2018-02-09T14:35:11.099Z,36.05
2018-02-09T14:37:37.349Z,33.72
2018-02-09T14:40:03.622Z,32.00
2018-02-09T14:42:30.605Z,33.30
2018-02-09T14:44:56.812Z,35.30
2018-02-09T14:47:23.078Z,32.97
2018-02-09T14:49:49.387Z,34.10
2018-02-09T14:52:15.662Z,32.55
2018-02-09T14:54:42.723Z,33.60
2018-02-09T14:57:08.937Z,31.05
2018-02-09T14:59:35.215Z,36.33
2018-02-09T15:02:01.466Z,33.08
2018-02-09T15:04:27.732Z,33.75
2018-02-09T15:06:53.968Z,33.28
2018-02-09T15:09:20.209Z,33.30
2018-02-09T15:11:46.477Z,33.92
2018-02-09T15:14:12.747Z,34.50
2018-02-09T15:16:39.764Z,35.63
2018-02-09T15:19:06.052Z,38.40
2018-02-09T15:21:32.311Z,35.72
2018-02-09T15:23:58.546Z,36.63
2018-02-09T15:26:25.162Z,38.17
2018-02-09T15:28:51.431Z,36.50
2018-02-09T15:31:17.672Z,37.08
2018-02-09T15:33:43.944Z,36.47
2018-02-09T15:36:10.181Z,36.17
2018-02-09T15:38:36.482Z,37.75
2018-02-09T15:41:03.474Z,32.97
2018-02-09T15:43:29.753Z,34.97
2018-02-09T15:45:56.001Z,35.95
2018-02-09T15:48:22.265Z,39.35
2018-02-09T15:50:49.308Z,35.60
2018-02-09T15:53:15.558Z,34.83
2018-02-09T15:55:41.774Z,35.08
2018-02-09T15:58:08.037Z,36.83
2018-02-09T16:00:35.019Z,34.75
2018-02-09T16:03:01.297Z,34.10
2018-02-09T16:05:28.298Z,36.00
2018-02-09T16:07:54.540Z,34.50
2018-02-09T16:10:21.549Z,33.50
2018-02-09T16:12:47.818Z,32.05
2018-02-09T16:15:14.100Z,34.75
2018-02-09T16:17:40.310Z,36.22
2018-02-09T16:20:06.557Z,34.53
2018-02-09T16:22:33.538Z,34.22
2018-02-09T16:24:59.801Z,32.70
2018-02-09T16:27:26.086Z,33.30
2018-02-09T16:29:53.085Z,36.05
2018-02-09T16:32:19.400Z,34.25
2018-02-09T16:34:46.381Z,33.90
2018-02-09T16:37:12.643Z,35.28
2018-02-09T16:39:38.919Z,34.47
2018-02-09T16:42:05.198Z,32.78
2018-02-09T16:44:31.510Z,35.30
2018-02-09T16:46:57.760Z,36.63
2018-02-09T16:49:24.866Z,37.80
2018-02-09T16:51:51.838Z,36.22
2018-02-09T16:54:18.110Z,36.50
2018-02-09T16:56:44.415Z,36.33
2018-02-09T16:59:10.687Z,41.50
2018-02-09T17:01:36.985Z,39.05
2018-02-09T17:04:03.245Z,39.97
2018-02-09T17:06:29.546Z,38.47
2018-02-09T17:08:55.803Z,35.35
2018-02-09T17:11:22.065Z,37.50
2018-02-09T17:13:48.361Z,34.88
2018-02-09T17:16:14.607Z,36.75
2018-02-09T17:18:41.276Z,42.72
2018-02-09T17:21:07.554Z,35.03
2018-02-09T17:23:33.854Z,37.85
2018-02-09T17:26:00.509Z,34.65
2018-02-09T17:28:26.768Z,37.35
2018-02-09T17:30:53.393Z,36.67
2018-02-09T17:33:19.654Z,38.85
2018-02-09T17:35:45.929Z,51.83
2018-02-09T17:38:12.219Z,37.53
2018-02-09T17:40:38.526Z,36.97
2018-02-09T17:43:06.130Z,36.80
2018-02-09T17:45:32.391Z,38.08
2018-02-09T17:47:58.723Z,40.75
2018-02-09T17:50:25.021Z,39.53
2018-02-09T17:52:51.369Z,39.85
2018-02-09T17:55:17.663Z,37.10
2018-02-09T17:57:43.938Z,40.72
2018-02-09T18:00:10.229Z,34.33
2018-02-09T18:02:36.508Z,33.92
2018-02-09T18:05:02.808Z,36.22
2018-02-09T18:07:29.086Z,37.30
2018-02-09T18:09:56.102Z,38.75
2018-02-09T18:12:22.366Z,40.35
2018-02-09T18:14:48.627Z,37.45
2018-02-09T18:17:15.239Z,37.75
2018-02-09T18:19:42.204Z,37.90
2018-02-09T18:22:08.476Z,40.92
2018-02-09T18:24:35.506Z,38.33
2018-02-09T18:27:01.756Z,40.70
2018-02-09T18:29:28.305Z,40.10
2018-02-09T18:31:54.584Z,40.17
2018-02-09T18:34:20.820Z,41.05
2018-02-09T18:36:47.152Z,42.60
2018-02-09T18:39:14.498Z,43.72
2018-02-09T18:41:40.746Z,39.13
2018-02-09T18:44:07.047Z,42.35
2018-02-09T18:46:33.419Z,41.17
2018-02-09T18:48:59.737Z,39.47
2018-02-09T18:51:26.047Z,39.47
2018-02-09T18:53:52.387Z,42.10
2018-02-09T18:56:18.672Z,40.97
2018-02-09T18:58:45.028Z,42.62
2018-02-09T19:01:11.343Z,37.80
2018-02-09T19:03:38.404Z,38.90
2018-02-09T19:06:05.481Z,40.03
2018-02-09T19:08:31.779Z,37.42
2018-02-09T19:10:58.350Z,40.70
2018-02-09T19:13:24.656Z,40.33
2018-02-09T19:15:50.989Z,39.05
2018-02-09T19:18:17.297Z,39.92
2018-02-09T19:20:43.583Z,38.95
2018-02-09T19:23:09.913Z,40.15
2018-02-09T19:25:36.220Z,39.70
2018-02-09T19:28:02.578Z,38.40
2018-02-09T19:30:28.928Z,41.10
2018-02-09T19:32:55.261Z,41.60
2018-02-09T19:35:21.619Z,40.55
2018-02-09T19:37:47.931Z,40.58
2018-02-09T19:40:14.292Z,39.28
2018-02-09T19:42:40.623Z,42.13
2018-02-09T19:45:06.979Z,40.65
2018-02-09T19:47:33.328Z,42.67
2018-02-09T19:49:59.687Z,43.28
2018-02-09T19:52:26.031Z,42.67
2018-02-09T19:54:52.395Z,39.08
2018-02-09T19:57:18.803Z,36.08
2018-02-09T19:59:45.095Z,38.97
2018-02-09T20:02:12.161Z,36.33
2018-02-09T20:04:38.550Z,40.90
2018-02-09T20:07:04.909Z,42.97
2018-02-09T20:09:31.617Z,42.10
2018-02-09T20:11:57.931Z,40.80
2018-02-09T20:14:24.273Z,40.75
2018-02-09T20:16:50.699Z,43.53
2018-02-09T20:19:17.081Z,40.40
2018-02-09T20:21:43.444Z,35.15
2018-02-09T20:24:09.809Z,35.85
2018-02-09T20:26:36.462Z,37.10
2018-02-09T20:29:05.397Z,34.38
2018-02-09T20:31:31.807Z,32.97
2018-02-09T20:33:58.156Z,30.85
2018-02-09T20:36:24.476Z,26.10
2018-02-09T20:38:50.860Z,28.80
2018-02-09T20:41:17.223Z,32.05
2018-02-09T20:43:44.286Z,33.67
2018-02-09T20:46:10.659Z,32.45
2018-02-09T20:48:37.004Z,34.38
2018-02-09T20:51:03.344Z,35.22
2018-02-09T20:53:29.718Z,36.55
2018-02-09T20:55:56.043Z,34.72
2018-02-09T20:58:22.396Z,36.13
2018-02-09T21:00:48.746Z,37.00
2018-02-09T21:03:15.378Z,35.75
2018-02-09T21:05:41.741Z,32.00
2018-02-09T21:08:08.078Z,35.83
2018-02-09T21:10:34.455Z,35.88
2018-02-09T21:13:00.772Z,34.40
2018-02-09T21:15:27.111Z,37.08
2018-02-09T21:17:53.444Z,39.67
2018-02-09T21:20:19.825Z,34.38
2018-02-09T21:22:46.145Z,34.92
2018-02-09T21:25:12.503Z,36.95
2018-02-09T21:27:38.886Z,37.13
2018-02-09T21:30:05.309Z,35.40
2018-02-09T21:32:31.645Z,32.80
2018-02-09T21:34:57.980Z,31.33
2018-02-09T21:37:24.336Z,33.05
2018-02-09T21:39:50.645Z,33.70
2018-02-09T21:42:16.941Z,35.22
2018-02-09T21:44:44.026Z,36.33
2018-02-09T21:47:10.337Z,34.53
2018-02-09T21:49:37.369Z,35.80
2018-02-09T21:52:03.681Z,36.75
2018-02-09T21:54:30.098Z,37.85
2018-02-09T21:56:56.391Z,39.25
2018-02-09T21:59:22.672Z,37.50
2018-02-09T22:01:49.710Z,40.40
2018-02-09T22:04:15.992Z,38.58
2018-02-09T22:06:42.382Z,39.05
2018-02-09T22:09:08.660Z,36.33
2018-02-09T22:11:34.925Z,36.60
2018-02-09T22:14:01.249Z,37.38
2018-02-09T22:16:27.524Z,37.65
2018-02-09T22:18:53.855Z,39.47
2018-02-09T22:21:20.102Z,38.80
2018-02-09T22:23:46.388Z,40.10
2018-02-09T22:26:13.425Z,37.80
2018-02-09T22:28:39.697Z,37.55
2018-02-09T22:31:05.984Z,40.28
2018-02-09T22:33:32.219Z,40.00
2018-02-09T22:35:58.746Z,43.38
2018-02-09T22:38:25.002Z,42.28
2018-02-09T22:40:51.254Z,43.70
2018-02-09T22:43:17.501Z,44.65
2018-02-09T22:45:43.742Z,40.50
2018-02-09T22:48:10.335Z,44.47
2018-02-09T22:50:37.269Z,42.50
2018-02-09T22:53:03.534Z,41.67
2018-02-09T22:55:29.764Z,42.00
2018-02-09T22:57:56.005Z,39.53
2018-02-09T23:00:22.303Z,39.20
2018-02-09T23:02:48.563Z,43.78
2018-02-09T23:05:14.828Z,39.65
2018-02-09T23:07:41.070Z,41.72
2018-02-09T23:10:07.351Z,42.13
2018-02-09T23:12:33.578Z,42.83
2018-02-09T23:15:00.924Z,41.50
2018-02-09T23:17:27.155Z,42.38
2018-02-09T23:19:53.387Z,41.45
2018-02-09T23:22:19.644Z,41.72
2018-02-09T23:24:45.875Z,38.97
2018-02-09T23:27:12.123Z,38.08
2018-02-09T23:29:38.302Z,38.33
2018-02-09T23:32:04.557Z,41.40
2018-02-09T23:34:30.782Z,39.80
2018-02-09T23:36:57.040Z,42.05
2018-02-09T23:39:23.281Z,39.38
2018-02-09T23:41:49.493Z,39.83
2018-02-09T23:44:15.748Z,41.22
2018-02-09T23:46:41.987Z,43.35
2018-02-09T23:49:08.238Z,41.67
2018-02-09T23:51:34.458Z,43.08
2018-02-09T23:54:00.733Z,44.20
2018-02-09T23:56:26.975Z,43.78
2018-02-09T23:58:53.205Z,41.60
